Time;durP1;ratioP1;P1;durP2;ratioP2;P2;SDS_P1;SDS_P2;PMS_P1;PMS_P2;Temp;Humidity;BMP_temperature;BMP_pressure;BME280_temperature;BME280_humidity;BME280_pressure;Samples;Min_cycle;Max_cycle;Signal;HPM_P1;HPM_P2
2023/07/18 00:04:41;;;;;;;;;;;;;;;20.97;50.67;100285.94;10326367;28;1103;-70
2023/07/18 00:09:37;;;;;;;;;;;;;;;20.97;50.64;100296.56;10326811;28;791;-70
2023/07/18 00:14:33;;;;;;;;;;;;;;;20.97;50.77;100290.41;10325426;28;1897;-70
2023/07/18 00:19:29;;;;;;;;;;;;;;;20.95;50.85;100289.59;10325927;28;828;-70
2023/07/18 00:24:25;;;;;;;;;;;;;;;20.95;50.66;100279.00;10326716;28;860;-70
2023/07/18 00:29:21;;;;;;;;;;;;;;;20.94;50.90;100277.31;10325978;28;884;-70
2023/07/18 00:34:17;;;;;;;;;;;;;;;20.94;50.79;100277.31;10326147;28;1977;-70
2023/07/18 00:39:13;;;;;;;;;;;;;;;20.92;50.75;100274.72;10325601;28;905;-70
2023/07/18 00:44:09;;;;;;;;;;;;;;;20.91;50.92;100275.66;10325596;28;798;-70
2023/07/18 00:49:05;;;;;;;;;;;;;;;20.91;50.84;100274.81;10325374;28;916;-70
2023/07/18 00:54:01;;;;;;;;;;;;;;;20.90;50.77;100281.88;10325921;28;1945;-70
2023/07/18 00:58:57;;;;;;;;;;;;;;;20.90;50.98;100273.06;10325420;28;880;-70
2023/07/18 01:03:53;;;;;;;;;;;;;;;20.89;51.02;100268.72;10325723;28;853;-70
2023/07/18 01:08:48;;;;;;;;;;;;;;;20.87;50.84;100266.13;10325348;28;1603;-70
2023/07/18 01:13:44;;;;;;;;;;;;;;;20.87;50.87;100276.72;10324805;28;1952;-70
2023/07/18 01:18:40;;;;;;;;;;;;;;;20.86;50.90;100263.56;10324242;28;798;-70
2023/07/18 01:23:36;;;;;;;;;;;;;;;20.85;50.88;100269.78;10325297;28;938;-70
2023/07/18 01:28:32;;;;;;;;;;;;;;;20.85;50.95;100267.97;10325516;28;830;-71
2023/07/18 01:33:28;;;;;;;;;;;;;;;20.84;50.82;100271.56;10323912;28;1985;-70
2023/07/18 01:38:29;;;;;;;;;;;;;;;20.83;51.02;100266.34;10325091;28;955;-70
2023/07/18 01:43:25;;;;;;;;;;;;;;;20.82;50.91;100259.34;10324925;28;918;-70
2023/07/18 01:48:21;;;;;;;;;;;;;;;20.81;51.13;100258.47;10325394;28;849;-70
2023/07/18 01:53:17;;;;;;;;;;;;;;;20.79;51.09;100261.19;10328999;28;1901;-70
2023/07/18 01:58:13;;;;;;;;;;;;;;;20.80;50.94;100267.34;10331971;28;826;-70
2023/07/18 02:03:09;;;;;;;;;;;;;;;20.78;50.96;100262.13;10330991;28;1363;-70
2023/07/18 02:08:04;;;;;;;;;;;;;;;20.77;51.05;100248.94;10331004;28;1000;-70
2023/07/18 02:13:02;;;;;;;;;;;;;;;20.76;51.10;100261.34;10331315;28;1894;-70
2023/07/18 02:17:58;;;;;;;;;;;;;;;20.75;51.12;100259.63;10330136;28;1179;-70
2023/07/18 02:22:56;;;;;;;;;;;;;;;20.75;51.11;100246.38;10330423;28;866;-70
2023/07/18 02:27:51;;;;;;;;;;;;;;;20.74;51.19;100244.66;10330870;28;925;-70
2023/07/18 02:32:47;;;;;;;;;;;;;;;20.73;51.09;100253.53;10330515;28;1914;-70
2023/07/18 02:37:43;;;;;;;;;;;;;;;20.72;51.10;100251.84;10329936;28;907;-70
2023/07/18 02:42:39;;;;;;;;;;;;;;;20.70;50.98;100239.59;10329750;28;885;-70
2023/07/18 02:47:35;;;;;;;;;;;;;;;20.71;51.17;100249.25;10330145;28;892;-70
2023/07/18 02:52:31;;;;;;;;;;;;;;;20.69;51.17;100235.22;10330473;28;1901;-70
2023/07/18 02:57:27;;;;;;;;;;;;;;;20.69;51.05;100232.56;10329087;28;894;-70
2023/07/18 03:02:23;;;;;;;;;;;;;;;20.68;51.17;100239.66;10328077;28;949;-71
2023/07/18 03:07:19;;;;;;;;;;;;;;;20.65;51.20;100229.22;10328775;28;904;-70
2023/07/18 03:12:15;;;;;;;;;;;;;;;20.66;51.20;100230.06;10328599;28;1898;-70
2023/07/18 03:17:10;;;;;;;;;;;;;;;20.64;51.17;100243.38;10327706;28;1288;-70
2023/07/18 03:22:06;;;;;;;;;;;;;;;20.63;51.10;100236.38;10328177;28;1248;-70
2023/07/18 03:27:03;;;;;;;;;;;;;;;20.63;51.39;100223.13;10327960;28;993;-70
2023/07/18 03:31:59;;;;;;;;;;;;;;;20.62;51.21;100223.19;10327862;28;1975;-70
2023/07/18 03:36:55;;;;;;;;;;;;;;;20.61;51.14;100230.28;10328069;28;816;-70
2023/07/18 03:41:51;;;;;;;;;;;;;;;20.60;51.21;100235.66;10327921;28;851;-70
2023/07/18 03:46:47;;;;;;;;;;;;;;;20.59;51.42;100234.78;10327091;28;964;-70
2023/07/18 03:51:42;;;;;;;;;;;;;;;20.58;51.37;100225.13;10326877;28;1902;-70
2023/07/18 03:56:38;;;;;;;;;;;;;;;20.56;51.36;100227.84;10327362;28;859;-70
2023/07/18 04:01:34;;;;;;;;;;;;;;;20.56;51.40;100229.63;10327300;28;900;-70
2023/07/18 04:06:30;;;;;;;;;;;;;;;20.55;51.38;100227.94;10327021;28;970;-70
2023/07/18 04:11:26;;;;;;;;;;;;;;;20.54;51.31;100231.50;10326210;28;1981;-70
2023/07/18 04:16:22;;;;;;;;;;;;;;;20.54;51.25;100228.84;10326407;28;810;-70
2023/07/18 04:21:18;;;;;;;;;;;;;;;20.52;51.34;100228.91;10325996;28;920;-70
2023/07/18 04:26:13;;;;;;;;;;;;;;;20.50;51.50;100220.16;10325976;28;912;-70
2023/07/18 04:31:09;;;;;;;;;;;;;;;20.49;51.49;100222.91;10325562;28;1320;-70
2023/07/18 04:36:06;;;;;;;;;;;;;;;20.49;51.48;100217.59;10324827;28;1967;-69
2023/07/18 04:41:02;;;;;;;;;;;;;;;20.49;51.39;100217.59;10326147;28;772;-69
2023/07/18 04:45:58;;;;;;;;;;;;;;;20.49;51.46;100213.16;10325377;28;842;-69
2023/07/18 04:50:54;;;;;;;;;;;;;;;20.55;51.48;100212.03;10326256;28;833;-66
2023/07/18 04:55:50;;;;;;;;;;;;;;;20.63;51.17;100211.69;10325142;28;1952;-66
2023/07/18 05:00:46;;;;;;;;;;;;;;;20.61;51.46;100211.75;10324610;28;834;-66
2023/07/18 05:05:42;;;;;;;;;;;;;;;20.60;51.41;100204.72;10325205;28;889;-66
2023/07/18 05:10:39;;;;;;;;;;;;;;;20.61;51.47;100206.44;10324965;28;883;-66
2023/07/18 05:15:35;;;;;;;;;;;;;;;20.61;51.65;100210.88;10325444;28;1889;-66
2023/07/18 05:20:30;;;;;;;;;;;;;;;20.59;51.46;100210.94;10324237;28;861;-66
2023/07/18 05:25:27;;;;;;;;;;;;;;;20.58;51.66;100211.88;10326095;28;868;-66
2023/07/18 05:30:23;;;;;;;;;;;;;;;20.58;51.76;100211.88;10332456;28;1111;-66
2023/07/18 05:35:18;;;;;;;;;;;;;;;20.57;51.90;100203.09;10332400;28;1969;-65
2023/07/18 05:40:15;;;;;;;;;;;;;;;20.56;51.86;100206.66;10332072;28;853;-65
2023/07/18 05:45:10;;;;;;;;;;;;;;;20.54;52.20;100207.66;10331888;28;793;-66
2023/07/18 05:50:06;;;;;;;;;;;;;;;20.51;52.24;100205.13;10332258;28;852;-66
2023/07/18 05:55:02;;;;;;;;;;;;;;;20.49;52.05;100196.41;10331505;28;1948;-66
2023/07/18 05:59:58;;;;;;;;;;;;;;;20.46;51.90;100197.41;10330921;28;1016;-66
2023/07/18 06:04:55;;;;;;;;;;;;;;;20.44;52.01;100195.78;10331838;28;885;-66
2023/07/18 06:09:52;;;;;;;;;;;;;;;20.42;52.06;100201.13;10330987;28;883;-66
2023/07/18 06:14:48;;;;;;;;;;;;;;;20.40;52.08;100196.84;10331324;28;1971;-67
2023/07/18 06:19:46;;;;;;;;;;;;;;;20.36;51.97;100197.00;10330559;28;946;-67
2023/07/18 06:24:42;;;;;;;;;;;;;;;20.36;52.00;100201.44;10330720;28;842;-67
2023/07/18 06:29:38;;;;;;;;;;;;;;;20.32;52.03;100206.00;10330024;28;1037;-69
2023/07/18 06:34:40;;;;;;;;;;;;;;;19.62;51.24;100198.56;10330705;28;1918;-69
2023/07/18 06:39:36;;;;;;;;;;;;;;;19.40;50.95;100210.06;10329580;28;789;-69
2023/07/18 06:44:32;;;;;;;;;;;;;;;19.17;51.17;100203.09;10329161;28;847;-69
2023/07/18 06:49:28;;;;;;;;;;;;;;;19.49;50.82;100199.09;10326378;28;1261;-67
2023/07/18 06:54:23;;;;;;;;;;;;;;;19.93;50.14;100192.78;10329263;28;1893;-66
2023/07/18 06:59:19;;;;;;;;;;;;;;;20.09;49.99;100180.56;10329048;28;965;-66
2023/07/18 07:04:17;;;;;;;;;;;;;;;20.17;49.97;100179.38;10328953;28;817;-67
2023/07/18 07:09:13;;;;;;;;;;;;;;;20.23;49.92;100181.75;10329030;28;829;-66
2023/07/18 07:14:11;;;;;;;;;;;;;;;20.27;49.81;100186.81;10328255;28;1982;-67
2023/07/18 07:19:07;;;;;;;;;;;;;;;20.30;50.02;100173.47;10328119;28;997;-66
2023/07/18 07:24:03;;;;;;;;;;;;;;;20.32;50.13;100170.72;10328736;28;774;-67
2023/07/18 07:28:59;;;;;;;;;;;;;;;20.33;49.99;100170.66;10328457;28;814;-67
2023/07/18 07:33:55;;;;;;;;;;;;;;;20.35;50.09;100173.22;10328075;28;1997;-67
2023/07/18 07:38:51;;;;;;;;;;;;;;;20.36;50.17;100169.66;10327986;28;851;-67
2023/07/18 07:43:47;;;;;;;;;;;;;;;20.40;49.96;100162.41;10326956;28;791;-66
2023/07/18 07:48:43;;;;;;;;;;;;;;;20.39;50.14;100152.78;10325908;28;865;-67
2023/07/18 07:53:39;;;;;;;;;;;;;;;20.39;50.21;100155.41;10326795;28;1902;-66
2023/07/18 07:58:36;;;;;;;;;;;;;;;20.41;49.87;100153.53;10326735;28;932;-66
2023/07/18 08:03:32;;;;;;;;;;;;;;;20.43;49.62;100154.31;10326468;28;887;-66
2023/07/18 08:08:28;;;;;;;;;;;;;;;20.44;49.87;100150.75;10325765;28;857;-71
2023/07/18 08:13:25;;;;;;;;;;;;;;;20.43;49.93;100146.38;10326149;28;1945;-71
2023/07/18 08:18:21;;;;;;;;;;;;;;;20.42;50.07;100148.19;10326059;28;966;-70
2023/07/18 08:23:17;;;;;;;;;;;;;;;20.43;49.94;100149.03;10325974;28;976;-71
2023/07/18 08:28:13;;;;;;;;;;;;;;;20.43;50.20;100143.72;10326311;28;883;-71
2023/07/18 08:33:09;;;;;;;;;;;;;;;20.45;49.87;100131.28;10326528;28;1991;-71
2023/07/18 08:38:05;;;;;;;;;;;;;;;20.45;50.12;100128.63;10326335;28;765;-71
2023/07/18 08:43:02;;;;;;;;;;;;;;;20.45;50.01;100126.84;10325648;28;838;-71
2023/07/18 08:47:58;;;;;;;;;;;;;;;20.47;50.15;100124.13;10325596;28;942;-71
2023/07/18 08:52:54;;;;;;;;;;;;;;;20.44;49.94;100119.00;10325269;28;1957;-71
2023/07/18 08:57:50;;;;;;;;;;;;;;;20.46;50.14;100114.44;10325410;28;860;-71
2023/07/18 09:02:48;;;;;;;;;;;;;;;20.44;50.27;100103.09;10331425;28;913;-69
2023/07/18 09:07:44;;;;;;;;;;;;;;;20.44;50.11;100106.59;10333364;28;1696;-70
2023/07/18 09:12:40;;;;;;;;;;;;;;;20.42;50.09;100089.91;10334239;28;1890;-70
2023/07/18 09:17:36;;;;;;;;;;;;;;;20.44;49.84;100082.78;10333333;28;801;-70
2023/07/18 09:22:32;;;;;;;;;;;;;;;20.43;49.92;100075.75;10333254;28;790;-70
2023/07/18 09:27:27;;;;;;;;;;;;;;;20.40;50.20;100088.28;10332092;28;873;-70
2023/07/18 09:32:23;;;;;;;;;;;;;;;20.38;49.79;100090.13;10332979;28;1910;-70
2023/07/18 09:37:19;;;;;;;;;;;;;;;20.40;49.62;100083.00;10332233;28;902;-70
2023/07/18 09:42:16;;;;;;;;;;;;;;;20.40;49.63;100075.91;10332863;28;870;-70
2023/07/18 09:47:12;;;;;;;;;;;;;;;20.39;49.78;100063.59;10331920;28;830;-69
2023/07/18 09:52:08;;;;;;;;;;;;;;;20.43;49.66;100048.41;10331400;28;1898;-69
2023/07/18 09:57:03;;;;;;;;;;;;;;;20.41;49.69;100058.22;10332118;28;818;-68
2023/07/18 10:02:04;;;;;;;;;;;;;;;20.40;50.01;100061.81;10332004;28;860;-69
2023/07/18 10:07:00;;;;;;;;;;;;;;;20.40;49.94;100062.66;10331099;28;895;-69
2023/07/18 10:11:56;;;;;;;;;;;;;;;20.41;50.04;100082.03;10330427;28;1894;-69
2023/07/18 10:16:51;;;;;;;;;;;;;;;20.38;50.18;100075.09;10330783;28;810;-69
2023/07/18 10:21:47;;;;;;;;;;;;;;;20.39;50.02;100081.28;10330974;28;842;-69
2023/07/18 10:26:43;;;;;;;;;;;;;;;20.44;49.91;100085.41;10330540;28;782;-69
2023/07/18 10:31:39;;;;;;;;;;;;;;;20.45;49.93;100078.31;10330230;28;1914;-69
2023/07/18 10:36:35;;;;;;;;;;;;;;;20.45;50.12;100073.88;10330895;28;937;-69
2023/07/18 10:41:31;;;;;;;;;;;;;;;20.41;50.08;100074.97;10329854;28;890;-69
2023/07/18 10:46:27;;;;;;;;;;;;;;;20.40;49.90;100067.09;10329096;28;845;-70
2023/07/18 10:51:23;;;;;;;;;;;;;;;20.43;50.04;100066.94;10311930;28;1528;-69
2023/07/18 10:56:19;;;;;;;;;;;;;;;20.40;50.20;100054.72;10329216;28;1894;-69
2023/07/18 11:01:15;;;;;;;;;;;;;;;20.39;50.34;100050.38;10330082;28;1022;-69
2023/07/18 11:06:13;;;;;;;;;;;;;;;20.40;50.22;100030.03;10328897;28;912;-69
2023/07/18 11:11:09;;;;;;;;;;;;;;;20.43;50.19;100006.06;10328648;28;962;-69
2023/07/18 11:16:05;;;;;;;;;;;;;;;20.45;50.05;100012.13;10328338;28;1894;-69
2023/07/18 11:21:01;;;;;;;;;;;;;;;20.41;50.10;100011.44;10328295;28;1003;-69
2023/07/18 11:25:56;;;;;;;;;;;;;;;20.44;50.40;100003.34;10328072;28;908;-68
2023/07/18 11:30:52;;;;;;;;;;;;;;;20.47;50.18;99994.38;10329152;28;1374;-71
2023/07/18 11:35:48;;;;;;;;;;;;;;;20.49;50.17;99995.16;10327932;28;1993;-70
2023/07/18 11:40:44;;;;;;;;;;;;;;;20.55;50.05;99989.59;10327616;28;948;-70
2023/07/18 11:45:41;;;;;;;;;;;;;;;20.51;50.35;99985.34;10327270;28;837;-70
2023/07/18 11:50:39;;;;;;;;;;;;;;;20.49;50.31;99979.28;10327041;28;864;-71
2023/07/18 11:55:35;;;;;;;;;;;;;;;20.49;50.28;99955.44;10326984;28;1960;-71
2023/07/18 12:00:30;;;;;;;;;;;;;;;20.49;50.17;99948.34;10327517;28;959;-70
2023/07/18 12:05:26;;;;;;;;;;;;;;;20.55;50.07;99944.56;10326591;28;856;-70
2023/07/18 12:10:22;;;;;;;;;;;;;;;20.54;50.12;99934.88;10326426;28;822;-70
2023/07/18 12:15:18;;;;;;;;;;;;;;;20.58;49.93;99949.69;10326377;28;1961;-70
2023/07/18 12:20:15;;;;;;;;;;;;;;;20.57;50.13;99934.75;10326147;28;762;-70
2023/07/18 12:25:10;;;;;;;;;;;;;;;20.48;50.22;99936.03;10327001;28;802;-70
2023/07/18 12:30:08;;;;;;;;;;;;;;;20.49;50.15;99945.72;10325553;28;1073;-70
2023/07/18 12:35:04;;;;;;;;;;;;;;;20.52;50.25;99947.34;10324840;28;1910;-70
2023/07/18 12:40:00;;;;;;;;;;;;;;;20.58;50.05;99947.91;10325706;28;770;-70
2023/07/18 12:44:56;;;;;;;;;;;;;;;20.59;50.00;99935.50;10326208;28;869;-70
2023/07/18 12:49:51;;;;;;;;;;;;;;;20.62;50.13;99947.72;10325446;28;761;-70
2023/07/18 12:54:47;;;;;;;;;;;;;;;20.52;50.41;99942.06;10325682;28;1897;-66
2023/07/18 12:59:43;;;;;;;;;;;;;;;20.47;50.66;99936.13;10325796;28;794;-66
2023/07/18 13:04:39;;;;;;;;;;;;;;;20.47;50.99;99949.38;10324792;28;969;-64
2023/07/18 13:09:36;;;;;;;;;;;;;;;20.43;51.01;99935.41;10324756;28;759;-64
2023/07/18 13:14:32;;;;;;;;;;;;;;;20.44;51.12;99928.34;10324650;28;1957;-64
2023/07/18 13:19:28;;;;;;;;;;;;;;;20.44;51.08;99929.19;10324548;28;970;-66
2023/07/18 13:24:24;;;;;;;;;;;;;;;20.44;51.42;99929.19;10324801;28;789;-66
2023/07/18 13:29:20;;;;;;;;;;;;;;;20.45;51.48;99907.06;10324405;28;864;-66
2023/07/18 13:34:17;;;;;;;;;;;;;;;20.45;51.80;99903.56;10324191;28;1910;-66
2023/07/18 13:39:13;;;;;;;;;;;;;;;20.46;51.83;99897.34;10324488;28;950;-66
2023/07/18 13:44:09;;;;;;;;;;;;;;;20.45;52.04;99891.19;10324144;28;782;-66
2023/07/18 13:49:05;;;;;;;;;;;;;;;20.45;52.18;99888.53;10330506;28;798;-66
2023/07/18 13:54:02;;;;;;;;;;;;;;;20.45;52.25;99885.03;10332020;28;1949;-66
2023/07/18 13:58:58;;;;;;;;;;;;;;;20.45;52.39;99872.66;10331164;28;917;-66
2023/07/18 14:03:54;;;;;;;;;;;;;;;20.46;52.47;99865.56;10331072;28;929;-66
2023/07/18 14:08:50;;;;;;;;;;;;;;;20.46;52.65;99845.25;10331003;28;837;-67
2023/07/18 14:13:46;;;;;;;;;;;;;;;20.48;52.54;99839.88;10331240;28;1959;-66
2023/07/18 14:18:42;;;;;;;;;;;;;;;20.47;52.59;99822.28;10331092;28;829;-66
2023/07/18 14:23:38;;;;;;;;;;;;;;;20.48;52.49;99816.03;10330330;28;887;-66
2023/07/18 14:28:34;;;;;;;;;;;;;;;20.51;52.68;99810.56;10330092;28;931;-66
2023/07/18 14:33:30;;;;;;;;;;;;;;;20.52;52.57;99804.34;10330135;28;1922;-66
2023/07/18 14:38:26;;;;;;;;;;;;;;;20.50;52.59;99801.78;10329267;28;883;-66
2023/07/18 14:43:22;;;;;;;;;;;;;;;20.50;52.62;99795.63;10328639;28;1219;-66
2023/07/18 14:48:17;;;;;;;;;;;;;;;20.53;52.52;99783.06;10329995;28;782;-66
2023/07/18 14:53:13;;;;;;;;;;;;;;;20.54;52.79;99774.25;10329823;28;1903;-65
2023/07/18 14:58:09;;;;;;;;;;;;;;;20.56;53.00;99763.53;10329106;28;818;-66
2023/07/18 15:03:05;;;;;;;;;;;;;;;20.55;53.02;99757.41;10329690;28;946;-66
2023/07/18 15:08:01;;;;;;;;;;;;;;;20.58;53.19;99767.81;10329553;28;766;-66
2023/07/18 15:12:57;;;;;;;;;;;;;;;20.59;53.25;99760.72;10328345;28;1902;-66
2023/07/18 15:17:53;;;;;;;;;;;;;;;20.62;53.08;99770.28;10328419;28;877;-66
2023/07/18 15:22:51;;;;;;;;;;;;;;;20.62;53.02;99757.06;10329412;28;979;-66
2023/07/18 15:27:47;;;;;;;;;;;;;;;20.62;53.08;99750.00;10327937;28;859;-66
2023/07/18 15:32:43;;;;;;;;;;;;;;;20.62;53.16;99757.06;10327838;28;1979;-66
2023/07/18 15:37:39;;;;;;;;;;;;;;;20.62;52.95;99746.47;10327703;28;776;-66
2023/07/18 15:42:35;;;;;;;;;;;;;;;20.62;52.96;99744.69;10328080;28;826;-66
2023/07/18 15:47:30;;;;;;;;;;;;;;;20.63;52.83;99745.53;10326589;28;845;-66
2023/07/18 15:52:27;;;;;;;;;;;;;;;20.63;52.88;99742.88;10327109;28;1894;-66
2023/07/18 15:57:23;;;;;;;;;;;;;;;20.65;52.89;99730.44;10326919;28;852;-65
2023/07/18 16:02:19;;;;;;;;;;;;;;;20.64;52.92;99729.53;10326691;28;897;-66
2023/07/18 16:07:15;;;;;;;;;;;;;;;20.66;52.84;99725.03;10326031;28;1180;-66
2023/07/18 16:12:11;;;;;;;;;;;;;;;20.66;52.72;99710.94;10326016;28;1885;-66
2023/07/18 16:17:09;;;;;;;;;;;;;;;20.67;52.70;99707.34;10324103;28;983;-66
2023/07/18 16:22:05;;;;;;;;;;;;;;;20.68;52.71;99706.41;10326462;28;870;-66
2023/07/18 16:27:00;;;;;;;;;;;;;;;20.70;52.77;99701.88;10326137;28;833;-66
2023/07/18 16:31:56;;;;;;;;;;;;;;;20.69;52.78;99695.72;10326238;28;2274;-66
2023/07/18 16:36:53;;;;;;;;;;;;;;;20.71;52.76;99687.69;10325647;28;873;-66
2023/07/18 16:41:49;;;;;;;;;;;;;;;20.70;52.74;99676.25;10325599;28;997;-65
2023/07/18 16:46:44;;;;;;;;;;;;;;;20.71;52.71;99675.28;10324917;28;850;-66
2023/07/18 16:51:40;;;;;;;;;;;;;;;20.70;52.79;99670.97;10325358;28;1897;-66
2023/07/18 16:56:36;;;;;;;;;;;;;;;20.71;52.69;99666.50;10325909;28;912;-66
2023/07/18 17:01:32;;;;;;;;;;;;;;;20.71;52.76;99672.66;10325787;28;860;-66
2023/07/18 17:06:28;;;;;;;;;;;;;;;20.70;52.69;99664.81;10326019;28;818;-66
2023/07/18 17:11:24;;;;;;;;;;;;;;;20.71;52.78;99659.41;10325608;28;871;-66
2023/07/18 17:16:20;;;;;;;;;;;;;;;20.71;52.62;99655.91;10324854;28;1886;-66
2023/07/18 17:21:16;;;;;;;;;;;;;;;20.71;52.62;99646.16;10325813;28;912;-67
2023/07/18 17:26:12;;;;;;;;;;;;;;;20.72;52.60;99645.25;10333417;28;869;-67
2023/07/18 17:31:07;;;;;;;;;;;;;;;20.72;52.68;99631.13;10332677;28;1424;-66
2023/07/18 17:36:04;;;;;;;;;;;;;;;20.73;52.68;99627.53;10332543;28;1906;-66
2023/07/18 17:41:01;;;;;;;;;;;;;;;20.75;52.61;99629.16;10332295;28;1072;-66
2023/07/18 17:45:57;;;;;;;;;;;;;;;20.74;52.83;99624.78;10332192;28;875;-66
2023/07/18 17:50:52;;;;;;;;;;;;;;;20.76;52.60;99612.31;10330548;28;1148;-66
2023/07/18 17:55:48;;;;;;;;;;;;;;;20.76;52.57;99614.13;10331554;28;1914;-65
2023/07/18 18:00:44;;;;;;;;;;;;;;;20.77;52.72;99614.00;10331641;28;949;-67
2023/07/18 18:05:46;;;;;;;;;;;;;;;20.83;52.61;99614.59;10331247;28;908;-67
2023/07/18 18:10:42;;;;;;;;;;;;;;;20.79;52.52;99612.13;10331049;28;950;-66
2023/07/18 18:15:38;;;;;;;;;;;;;;;20.78;52.63;99607.78;10331523;28;1894;-66
2023/07/18 18:20:34;;;;;;;;;;;;;;;20.78;52.65;99605.16;10331099;28;818;-66
2023/07/18 18:25:30;;;;;;;;;;;;;;;20.80;52.50;99602.38;10330649;28;855;-66
2023/07/18 18:30:26;;;;;;;;;;;;;;;20.81;52.58;99597.97;10331554;28;1146;-68
2023/07/18 18:35:21;;;;;;;;;;;;;;;20.82;52.61;99586.41;10329074;28;1967;-66
2023/07/18 18:40:17;;;;;;;;;;;;;;;20.82;52.79;99594.38;10329877;28;931;-67
2023/07/18 18:45:13;;;;;;;;;;;;;;;20.81;52.64;99596.16;10329889;28;963;-66
2023/07/18 18:50:09;;;;;;;;;;;;;;;20.82;52.65;99589.06;10330360;28;926;-66
2023/07/18 18:55:05;;;;;;;;;;;;;;;20.83;52.76;99593.41;10329912;28;1894;-67
2023/07/18 19:00:01;;;;;;;;;;;;;;;20.82;52.73;99592.56;10330008;28;856;-67
2023/07/18 19:04:57;;;;;;;;;;;;;;;20.82;52.56;99597.00;10329190;28;820;-66
2023/07/18 19:09:53;;;;;;;;;;;;;;;20.82;52.62;99589.06;10328827;28;860;-66
2023/07/18 19:14:49;;;;;;;;;;;;;;;20.85;52.68;99597.69;10328064;28;1897;-66
2023/07/18 19:19:44;;;;;;;;;;;;;;;20.84;52.66;99590.69;10328323;28;1165;-66
2023/07/18 19:24:40;;;;;;;;;;;;;;;20.86;52.74;99595.91;10328018;28;843;-67
2023/07/18 19:29:36;;;;;;;;;;;;;;;20.86;52.66;99595.91;10327813;28;1365;-67
2023/07/18 19:34:33;;;;;;;;;;;;;;;20.85;52.61;99597.69;10328021;28;1971;-66
2023/07/18 19:39:29;;;;;;;;;;;;;;;20.87;52.73;99600.25;10328224;28;825;-67
2023/07/18 19:44:25;;;;;;;;;;;;;;;20.88;52.82;99610.78;10327346;28;767;-66
2023/07/18 19:49:21;;;;;;;;;;;;;;;20.90;52.79;99615.97;10327922;28;945;-67
2023/07/18 19:54:17;;;;;;;;;;;;;;;20.89;52.76;99616.91;10327623;28;1893;-66
2023/07/18 19:59:13;;;;;;;;;;;;;;;20.89;52.66;99612.47;10326283;28;964;-66
2023/07/18 20:04:09;;;;;;;;;;;;;;;20.89;52.70;99624.88;10327377;28;754;-66
2023/07/18 20:09:05;;;;;;;;;;;;;;;20.90;52.56;99624.75;10327494;28;857;-65
2023/07/18 20:14:01;;;;;;;;;;;;;;;20.91;52.71;99620.34;10325830;28;1890;-66
2023/07/18 20:18:57;;;;;;;;;;;;;;;20.90;52.66;99623.91;10326249;28;912;-65
2023/07/18 20:23:53;;;;;;;;;;;;;;;20.87;52.61;99624.94;10326839;28;859;-65
2023/07/18 20:28:48;;;;;;;;;;;;;;;20.87;52.50;99618.78;10325974;28;906;-65
2023/07/18 20:33:45;;;;;;;;;;;;;;;20.86;52.51;99622.41;10325660;28;1914;-65
2023/07/18 20:38:42;;;;;;;;;;;;;;;20.86;52.54;99627.69;10326501;28;898;-65
2023/07/18 20:43:40;;;;;;;;;;;;;;;20.86;52.40;99619.75;10325617;28;991;-65
2023/07/18 20:48:36;;;;;;;;;;;;;;;20.85;52.39;99620.69;10325564;28;854;-65
2023/07/18 20:53:32;;;;;;;;;;;;;;;20.85;52.35;99624.16;10324829;28;1897;-66
2023/07/18 20:58:28;;;;;;;;;;;;;;;20.86;52.42;99625.03;10324834;28;829;-66
2023/07/18 21:03:24;;;;;;;;;;;;;;;20.85;52.38;99626.81;10325973;28;1048;-66
2023/07/18 21:08:20;;;;;;;;;;;;;;;20.88;52.46;99625.78;10324578;28;988;-65
2023/07/18 21:13:16;;;;;;;;;;;;;;;20.88;52.37;99631.97;10324911;28;1902;-66
2023/07/18 21:18:11;;;;;;;;;;;;;;;20.88;52.45;99631.09;10325013;28;785;-66
2023/07/18 21:23:07;;;;;;;;;;;;;;;20.88;52.38;99631.97;10324886;28;877;-66
2023/07/18 21:28:03;;;;;;;;;;;;;;;20.88;52.57;99631.09;10324801;28;949;-66
2023/07/18 21:32:59;;;;;;;;;;;;;;;20.88;52.32;99623.13;10325228;28;1973;-66
2023/07/18 21:37:55;;;;;;;;;;;;;;;20.86;52.50;99611.81;10324462;28;862;-66
2023/07/18 21:42:51;;;;;;;;;;;;;;;20.87;52.60;99619.63;10325069;28;933;-66
2023/07/18 21:47:47;;;;;;;;;;;;;;;20.87;52.54;99613.50;10324404;28;802;-66
2023/07/18 21:52:43;;;;;;;;;;;;;;;20.86;52.45;99620.59;10324210;28;1956;-66
2023/07/18 21:57:39;;;;;;;;;;;;;;;20.88;52.60;99615.19;10324888;28;849;-66
2023/07/18 22:02:35;;;;;;;;;;;;;;;20.87;52.53;99613.50;10324166;28;858;-66
2023/07/18 22:07:31;;;;;;;;;;;;;;;20.86;52.54;99617.94;10325166;28;857;-66
2023/07/18 22:12:27;;;;;;;;;;;;;;;20.86;52.57;99610.00;10331768;28;1933;-66
2023/07/18 22:17:23;;;;;;;;;;;;;;;20.87;52.51;99613.50;10331026;28;844;-66
2023/07/18 22:22:19;;;;;;;;;;;;;;;20.85;52.48;99610.06;10330832;28;966;-66
2023/07/18 22:27:15;;;;;;;;;;;;;;;20.85;52.54;99607.44;10331310;28;869;-66
2023/07/18 22:32:10;;;;;;;;;;;;;;;20.85;52.55;99612.72;10330196;28;1902;-66
2023/07/18 22:37:07;;;;;;;;;;;;;;;20.85;52.47;99599.47;10329705;28;1047;-66
2023/07/18 22:42:02;;;;;;;;;;;;;;;20.85;52.50;99594.19;10330818;28;834;-66
2023/07/18 22:46:58;;;;;;;;;;;;;;;20.85;52.60;99591.53;10329329;28;917;-66
2023/07/18 22:51:54;;;;;;;;;;;;;;;20.86;52.55;99585.31;10329311;28;1943;-66
2023/07/18 22:56:50;;;;;;;;;;;;;;;20.84;52.43;99588.03;10329527;28;1039;-66
2023/07/18 23:01:46;;;;;;;;;;;;;;;20.84;52.55;99576.59;10329315;28;1157;-66
2023/07/18 23:06:42;;;;;;;;;;;;;;;20.84;52.59;99577.44;10329101;28;851;-66
2023/07/18 23:11:38;;;;;;;;;;;;;;;20.85;52.52;99575.63;10329529;28;838;-66
2023/07/18 23:16:34;;;;;;;;;;;;;;;20.83;52.64;99572.22;10329806;28;1886;-66
2023/07/18 23:21:30;;;;;;;;;;;;;;;20.83;52.69;99569.56;10327436;28;910;-66
2023/07/18 23:26:26;;;;;;;;;;;;;;;20.83;52.61;99565.16;10328293;28;762;-66
2023/07/18 23:31:22;;;;;;;;;;;;;;;20.82;52.54;99562.56;10328086;28;1370;-66
2023/07/18 23:36:17;;;;;;;;;;;;;;;20.82;52.60;99555.47;10327767;28;1985;-66
2023/07/18 23:41:13;;;;;;;;;;;;;;;20.82;52.61;99552.81;10327628;28;756;-66
2023/07/18 23:46:09;;;;;;;;;;;;;;;20.82;52.58;99551.97;10326850;28;842;-66
2023/07/18 23:51:05;;;;;;;;;;;;;;;20.82;52.67;99541.38;10328837;28;856;-66
2023/07/18 23:56:01;;;;;;;;;;;;;;;20.81;52.59;99550.28;10327712;28;1962;-66
